sensor_id;sensor_type;location;lat;lon;timestamp;temperature;humidity
34153;DHT22;20426;48.372;10.888;2023-08-24T00:00:11;23.60;99.90
34153;DHT22;20426;48.372;10.888;2023-08-24T00:00:42;23.60;99.90
34153;DHT22;20426;48.372;10.888;2023-08-24T00:01:12;23.70;99.90
34153;DHT22;20426;48.372;10.888;2023-08-24T00:01:43;23.60;99.90
34153;DHT22;20426;48.372;10.888;2023-08-24T00:02:14;23.70;99.90
34153;DHT22;20426;48.372;10.888;2023-08-24T00:02:45;23.70;99.90
34153;DHT22;20426;48.372;10.888;2023-08-24T00:03:15;23.70;99.90
34153;DHT22;20426;48.372;10.888;2023-08-24T00:03:46;23.70;99.90
34153;DHT22;20426;48.372;10.888;2023-08-24T00:04:17;23.70;99.90
34153;DHT22;20426;48.372;10.888;2023-08-24T00:04:47;23.70;99.90
34153;DHT22;20426;48.372;10.888;2023-08-24T00:05:19;23.60;99.90
34153;DHT22;20426;48.372;10.888;2023-08-24T00:05:50;23.70;99.90
34153;DHT22;20426;48.372;10.888;2023-08-24T00:06:22;23.60;99.90
34153;DHT22;20426;48.372;10.888;2023-08-24T00:06:52;23.60;99.90
34153;DHT22;20426;48.372;10.888;2023-08-24T00:07:23;23.60;99.90
34153;DHT22;20426;48.372;10.888;2023-08-24T00:07:54;23.70;99.90
34153;DHT22;20426;48.372;10.888;2023-08-24T00:08:24;23.60;99.90
34153;DHT22;20426;48.372;10.888;2023-08-24T00:08:55;23.60;99.90
34153;DHT22;20426;48.372;10.888;2023-08-24T00:09:26;23.60;99.90
34153;DHT22;20426;48.372;10.888;2023-08-24T00:09:57;23.60;99.90
34153;DHT22;20426;48.372;10.888;2023-08-24T00:10:28;23.60;99.90
34153;DHT22;20426;48.372;10.888;2023-08-24T00:10:59;23.50;99.90
34153;DHT22;20426;48.372;10.888;2023-08-24T00:11:30;23.50;99.90
34153;DHT22;20426;48.372;10.888;2023-08-24T00:12:01;23.50;99.90
34153;DHT22;20426;48.372;10.888;2023-08-24T00:12:33;23.50;99.90
34153;DHT22;20426;48.372;10.888;2023-08-24T00:13:05;23.60;99.90
34153;DHT22;20426;48.372;10.888;2023-08-24T00:13:37;23.50;99.90
34153;DHT22;20426;48.372;10.888;2023-08-24T00:14:09;23.50;99.90
34153;DHT22;20426;48.372;10.888;2023-08-24T00:14:39;23.50;99.90
34153;DHT22;20426;48.372;10.888;2023-08-24T00:15:10;23.50;99.90
34153;DHT22;20426;48.372;10.888;2023-08-24T00:15:41;23.50;99.90
34153;DHT22;20426;48.372;10.888;2023-08-24T00:16:12;23.50;99.90
34153;DHT22;20426;48.372;10.888;2023-08-24T00:16:42;23.50;99.90
34153;DHT22;20426;48.372;10.888;2023-08-24T00:17:13;23.50;99.90
34153;DHT22;20426;48.372;10.888;2023-08-24T00:17:45;23.40;99.90
34153;DHT22;20426;48.372;10.888;2023-08-24T00:18:16;23.40;99.90
34153;DHT22;20426;48.372;10.888;2023-08-24T00:18:48;23.40;99.90
34153;DHT22;20426;48.372;10.888;2023-08-24T00:19:19;23.40;99.90
34153;DHT22;20426;48.372;10.888;2023-08-24T00:19:50;23.40;99.90
34153;DHT22;20426;48.372;10.888;2023-08-24T00:20:21;23.40;99.90
34153;DHT22;20426;48.372;10.888;2023-08-24T00:20:51;23.40;99.90
34153;DHT22;20426;48.372;10.888;2023-08-24T00:21:22;23.40;99.90
34153;DHT22;20426;48.372;10.888;2023-08-24T00:21:54;23.40;99.90
34153;DHT22;20426;48.372;10.888;2023-08-24T00:22:24;23.40;99.90
34153;DHT22;20426;48.372;10.888;2023-08-24T00:22:55;23.40;99.90
34153;DHT22;20426;48.372;10.888;2023-08-24T00:23:26;23.40;99.90
34153;DHT22;20426;48.372;10.888;2023-08-24T00:23:56;23.40;99.90
34153;DHT22;20426;48.372;10.888;2023-08-24T00:24:27;23.40;99.90
34153;DHT22;20426;48.372;10.888;2023-08-24T00:24:58;23.40;99.90
34153;DHT22;20426;48.372;10.888;2023-08-24T00:25:30;23.40;99.90
34153;DHT22;20426;48.372;10.888;2023-08-24T00:26:01;23.30;99.90
34153;DHT22;20426;48.372;10.888;2023-08-24T00:26:31;23.40;99.90
34153;DHT22;20426;48.372;10.888;2023-08-24T00:27:02;23.30;99.90
34153;DHT22;20426;48.372;10.888;2023-08-24T00:27:33;23.30;99.90
34153;DHT22;20426;48.372;10.888;2023-08-24T00:28:04;23.30;99.90
34153;DHT22;20426;48.372;10.888;2023-08-24T00:28:35;23.30;99.90
34153;DHT22;20426;48.372;10.888;2023-08-24T00:29:06;23.30;99.90
34153;DHT22;20426;48.372;10.888;2023-08-24T00:29:36;23.30;99.90
34153;DHT22;20426;48.372;10.888;2023-08-24T00:30:07;23.30;99.90
34153;DHT22;20426;48.372;10.888;2023-08-24T00:30:38;23.30;99.90
34153;DHT22;20426;48.372;10.888;2023-08-24T00:31:09;23.30;99.90
34153;DHT22;20426;48.372;10.888;2023-08-24T00:31:39;23.30;99.90
34153;DHT22;20426;48.372;10.888;2023-08-24T00:32:10;23.20;99.90
34153;DHT22;20426;48.372;10.888;2023-08-24T00:32:41;23.20;99.90
34153;DHT22;20426;48.372;10.888;2023-08-24T00:33:11;23.20;99.90
34153;DHT22;20426;48.372;10.888;2023-08-24T00:33:42;23.20;99.90
34153;DHT22;20426;48.372;10.888;2023-08-24T00:34:13;23.20;99.90
34153;DHT22;20426;48.372;10.888;2023-08-24T00:34:43;23.20;99.90
34153;DHT22;20426;48.372;10.888;2023-08-24T00:35:14;23.20;99.90
34153;DHT22;20426;48.372;10.888;2023-08-24T00:35:46;23.20;99.90
34153;DHT22;20426;48.372;10.888;2023-08-24T00:36:16;23.30;99.90
34153;DHT22;20426;48.372;10.888;2023-08-24T00:36:48;23.20;99.90
34153;DHT22;20426;48.372;10.888;2023-08-24T00:37:19;23.20;99.90
34153;DHT22;20426;48.372;10.888;2023-08-24T00:37:49;23.20;99.90
34153;DHT22;20426;48.372;10.888;2023-08-24T00:38:21;23.20;99.90
34153;DHT22;20426;48.372;10.888;2023-08-24T00:38:51;23.20;99.90
34153;DHT22;20426;48.372;10.888;2023-08-24T00:39:23;23.20;99.90
34153;DHT22;20426;48.372;10.888;2023-08-24T00:39:54;23.20;99.90
34153;DHT22;20426;48.372;10.888;2023-08-24T00:40:25;23.20;99.90
34153;DHT22;20426;48.372;10.888;2023-08-24T00:40:57;23.20;99.90
34153;DHT22;20426;48.372;10.888;2023-08-24T00:41:29;23.20;99.90
34153;DHT22;20426;48.372;10.888;2023-08-24T00:42:00;23.20;99.90
34153;DHT22;20426;48.372;10.888;2023-08-24T00:42:31;23.20;99.90
34153;DHT22;20426;48.372;10.888;2023-08-24T00:43:02;23.20;99.90
34153;DHT22;20426;48.372;10.888;2023-08-24T00:43:33;23.20;99.90
34153;DHT22;20426;48.372;10.888;2023-08-24T00:44:03;23.10;99.90
34153;DHT22;20426;48.372;10.888;2023-08-24T00:44:34;23.10;99.90
34153;DHT22;20426;48.372;10.888;2023-08-24T00:45:05;23.10;99.90
34153;DHT22;20426;48.372;10.888;2023-08-24T00:45:36;23.10;99.90
34153;DHT22;20426;48.372;10.888;2023-08-24T00:46:07;23.10;99.90
34153;DHT22;20426;48.372;10.888;2023-08-24T00:46:38;23.10;99.90
34153;DHT22;20426;48.372;10.888;2023-08-24T00:47:10;23.10;99.90
34153;DHT22;20426;48.372;10.888;2023-08-24T00:47:43;23.10;99.90
34153;DHT22;20426;48.372;10.888;2023-08-24T00:48:15;23.10;99.90
34153;DHT22;20426;48.372;10.888;2023-08-24T00:48:46;23.10;99.90
34153;DHT22;20426;48.372;10.888;2023-08-24T00:49:17;23.10;99.90
34153;DHT22;20426;48.372;10.888;2023-08-24T00:49:48;23.00;99.90
34153;DHT22;20426;48.372;10.888;2023-08-24T00:50:19;23.10;99.90
34153;DHT22;20426;48.372;10.888;2023-08-24T00:50:50;23.00;99.90
34153;DHT22;20426;48.372;10.888;2023-08-24T00:51:21;23.10;99.90
34153;DHT22;20426;48.372;10.888;2023-08-24T00:51:52;23.00;99.90
34153;DHT22;20426;48.372;10.888;2023-08-24T00:52:25;23.00;99.90
34153;DHT22;20426;48.372;10.888;2023-08-24T00:52:56;23.00;99.90
34153;DHT22;20426;48.372;10.888;2023-08-24T00:53:28;23.00;99.90
34153;DHT22;20426;48.372;10.888;2023-08-24T00:53:59;23.00;99.90
34153;DHT22;20426;48.372;10.888;2023-08-24T00:54:29;23.00;99.90
34153;DHT22;20426;48.372;10.888;2023-08-24T00:55:01;23.00;99.90
34153;DHT22;20426;48.372;10.888;2023-08-24T00:55:32;23.00;99.90
34153;DHT22;20426;48.372;10.888;2023-08-24T00:56:03;23.00;99.90
34153;DHT22;20426;48.372;10.888;2023-08-24T00:56:35;23.00;99.90
34153;DHT22;20426;48.372;10.888;2023-08-24T00:57:06;23.00;99.90
34153;DHT22;20426;48.372;10.888;2023-08-24T00:57:38;23.00;99.90
34153;DHT22;20426;48.372;10.888;2023-08-24T00:58:10;23.00;99.90
34153;DHT22;20426;48.372;10.888;2023-08-24T00:58:41;23.00;99.90
34153;DHT22;20426;48.372;10.888;2023-08-24T00:59:12;23.00;99.90
34153;DHT22;20426;48.372;10.888;2023-08-24T00:59:42;23.00;99.90
34153;DHT22;20426;48.372;10.888;2023-08-24T01:00:13;23.00;99.90
34153;DHT22;20426;48.372;10.888;2023-08-24T01:00:45;23.00;99.90
34153;DHT22;20426;48.372;10.888;2023-08-24T01:01:17;23.00;99.90
34153;DHT22;20426;48.372;10.888;2023-08-24T01:01:48;23.00;99.90
34153;DHT22;20426;48.372;10.888;2023-08-24T01:02:20;23.00;99.90
34153;DHT22;20426;48.372;10.888;2023-08-24T01:02:50;23.00;99.90
34153;DHT22;20426;48.372;10.888;2023-08-24T01:03:24;23.00;99.90
34153;DHT22;20426;48.372;10.888;2023-08-24T01:03:55;22.90;99.90
34153;DHT22;20426;48.372;10.888;2023-08-24T01:04:26;22.90;99.90
34153;DHT22;20426;48.372;10.888;2023-08-24T01:04:56;22.90;99.90
34153;DHT22;20426;48.372;10.888;2023-08-24T01:05:28;22.90;99.90
34153;DHT22;20426;48.372;10.888;2023-08-24T01:05:59;22.90;99.90
34153;DHT22;20426;48.372;10.888;2023-08-24T01:06:29;22.90;99.90
34153;DHT22;20426;48.372;10.888;2023-08-24T01:07:00;22.90;99.90
34153;DHT22;20426;48.372;10.888;2023-08-24T01:07:32;22.90;99.90
34153;DHT22;20426;48.372;10.888;2023-08-24T01:08:04;22.90;99.90
34153;DHT22;20426;48.372;10.888;2023-08-24T01:08:35;22.90;99.90
34153;DHT22;20426;48.372;10.888;2023-08-24T01:09:06;22.90;99.90
34153;DHT22;20426;48.372;10.888;2023-08-24T01:09:37;22.90;99.90
34153;DHT22;20426;48.372;10.888;2023-08-24T01:10:09;22.90;99.90
34153;DHT22;20426;48.372;10.888;2023-08-24T01:11:32;22.90;99.90
34153;DHT22;20426;48.372;10.888;2023-08-24T01:14:40;22.90;99.90
34153;DHT22;20426;48.372;10.888;2023-08-24T01:16:08;22.90;99.90
34153;DHT22;20426;48.372;10.888;2023-08-24T01:16:33;22.90;99.90
34153;DHT22;20426;48.372;10.888;2023-08-24T01:17:09;22.90;99.90
34153;DHT22;20426;48.372;10.888;2023-08-24T01:17:43;22.90;99.90
34153;DHT22;20426;48.372;10.888;2023-08-24T01:18:16;22.80;99.90
34153;DHT22;20426;48.372;10.888;2023-08-24T01:18:50;22.80;99.90
34153;DHT22;20426;48.372;10.888;2023-08-24T01:19:44;22.80;99.90
34153;DHT22;20426;48.372;10.888;2023-08-24T01:20:16;22.80;99.90
34153;DHT22;20426;48.372;10.888;2023-08-24T01:20:49;22.80;99.90
34153;DHT22;20426;48.372;10.888;2023-08-24T01:21:20;22.80;99.90
34153;DHT22;20426;48.372;10.888;2023-08-24T01:21:54;22.80;99.90
34153;DHT22;20426;48.372;10.888;2023-08-24T01:23:43;22.80;99.90
34153;DHT22;20426;48.372;10.888;2023-08-24T01:25:11;22.80;99.90
34153;DHT22;20426;48.372;10.888;2023-08-24T01:25:37;22.80;99.90
34153;DHT22;20426;48.372;10.888;2023-08-24T01:26:19;22.70;99.90
34153;DHT22;20426;48.372;10.888;2023-08-24T01:26:52;22.80;99.90
34153;DHT22;20426;48.372;10.888;2023-08-24T01:27:23;22.70;99.90
34153;DHT22;20426;48.372;10.888;2023-08-24T01:27:54;22.70;99.90
34153;DHT22;20426;48.372;10.888;2023-08-24T01:28:26;22.70;99.90
34153;DHT22;20426;48.372;10.888;2023-08-24T01:28:57;22.70;99.90
34153;DHT22;20426;48.372;10.888;2023-08-24T01:29:29;22.70;99.90
34153;DHT22;20426;48.372;10.888;2023-08-24T01:30:00;22.70;99.90
34153;DHT22;20426;48.372;10.888;2023-08-24T01:30:33;22.70;99.90
34153;DHT22;20426;48.372;10.888;2023-08-24T01:31:05;22.70;99.90
34153;DHT22;20426;48.372;10.888;2023-08-24T01:31:36;22.70;99.90
34153;DHT22;20426;48.372;10.888;2023-08-24T01:32:11;22.70;99.90
34153;DHT22;20426;48.372;10.888;2023-08-24T01:32:44;22.70;99.90
34153;DHT22;20426;48.372;10.888;2023-08-24T01:33:15;22.70;99.90
34153;DHT22;20426;48.372;10.888;2023-08-24T01:33:46;22.70;99.90
34153;DHT22;20426;48.372;10.888;2023-08-24T01:34:17;22.70;99.90
34153;DHT22;20426;48.372;10.888;2023-08-24T01:34:47;22.70;99.90
34153;DHT22;20426;48.372;10.888;2023-08-24T01:35:18;22.70;99.90
34153;DHT22;20426;48.372;10.888;2023-08-24T01:35:49;22.70;99.90
34153;DHT22;20426;48.372;10.888;2023-08-24T01:36:19;22.70;99.90
34153;DHT22;20426;48.372;10.888;2023-08-24T01:36:50;22.70;99.90
34153;DHT22;20426;48.372;10.888;2023-08-24T01:37:21;22.70;99.90
34153;DHT22;20426;48.372;10.888;2023-08-24T01:37:51;22.70;99.90
34153;DHT22;20426;48.372;10.888;2023-08-24T01:38:22;22.70;99.90
34153;DHT22;20426;48.372;10.888;2023-08-24T01:39:22;22.70;99.90
34153;DHT22;20426;48.372;10.888;2023-08-24T01:40:48;22.70;99.90
34153;DHT22;20426;48.372;10.888;2023-08-24T01:41:26;22.70;99.90
34153;DHT22;20426;48.372;10.888;2023-08-24T01:42:02;22.60;99.90
34153;DHT22;20426;48.372;10.888;2023-08-24T01:42:35;22.70;99.90
34153;DHT22;20426;48.372;10.888;2023-08-24T01:43:09;22.60;99.90
34153;DHT22;20426;48.372;10.888;2023-08-24T01:43:42;22.60;99.90
34153;DHT22;20426;48.372;10.888;2023-08-24T01:44:15;22.60;99.90
34153;DHT22;20426;48.372;10.888;2023-08-24T01:44:51;22.60;99.90
34153;DHT22;20426;48.372;10.888;2023-08-24T01:45:24;22.60;99.90
34153;DHT22;20426;48.372;10.888;2023-08-24T01:45:56;22.60;99.90
34153;DHT22;20426;48.372;10.888;2023-08-24T01:46:28;22.60;99.90
34153;DHT22;20426;48.372;10.888;2023-08-24T01:47:01;22.60;99.90
34153;DHT22;20426;48.372;10.888;2023-08-24T01:47:35;22.50;99.90
34153;DHT22;20426;48.372;10.888;2023-08-24T01:48:07;22.60;99.90
34153;DHT22;20426;48.372;10.888;2023-08-24T01:48:40;22.60;99.90
34153;DHT22;20426;48.372;10.888;2023-08-24T01:49:13;22.60;99.90
34153;DHT22;20426;48.372;10.888;2023-08-24T01:49:45;22.60;99.90
34153;DHT22;20426;48.372;10.888;2023-08-24T01:50:16;22.50;99.90
34153;DHT22;20426;48.372;10.888;2023-08-24T01:50:47;22.50;99.90
34153;DHT22;20426;48.372;10.888;2023-08-24T01:51:18;22.50;99.90
34153;DHT22;20426;48.372;10.888;2023-08-24T01:51:50;22.50;99.90
34153;DHT22;20426;48.372;10.888;2023-08-24T01:52:21;22.50;99.90
34153;DHT22;20426;48.372;10.888;2023-08-24T01:52:52;22.50;99.90
34153;DHT22;20426;48.372;10.888;2023-08-24T01:53:23;22.50;99.90
34153;DHT22;20426;48.372;10.888;2023-08-24T01:53:54;22.50;99.90
34153;DHT22;20426;48.372;10.888;2023-08-24T01:54:25;22.50;99.90
34153;DHT22;20426;48.372;10.888;2023-08-24T01:54:55;22.50;99.90
34153;DHT22;20426;48.372;10.888;2023-08-24T01:55:26;22.50;99.90
34153;DHT22;20426;48.372;10.888;2023-08-24T01:55:58;22.50;99.90
34153;DHT22;20426;48.372;10.888;2023-08-24T01:56:28;22.50;99.90
34153;DHT22;20426;48.372;10.888;2023-08-24T01:56:59;22.50;99.90
34153;DHT22;20426;48.372;10.888;2023-08-24T01:57:30;22.50;99.90
34153;DHT22;20426;48.372;10.888;2023-08-24T01:58:00;22.50;99.90
34153;DHT22;20426;48.372;10.888;2023-08-24T01:58:31;22.50;99.90
34153;DHT22;20426;48.372;10.888;2023-08-24T01:59:02;22.50;99.90
34153;DHT22;20426;48.372;10.888;2023-08-24T01:59:33;22.50;99.90
34153;DHT22;20426;48.372;10.888;2023-08-24T02:00:04;22.50;99.90
34153;DHT22;20426;48.372;10.888;2023-08-24T02:00:37;22.50;99.90
34153;DHT22;20426;48.372;10.888;2023-08-24T02:01:09;22.50;99.90
34153;DHT22;20426;48.372;10.888;2023-08-24T02:01:40;22.50;99.90
34153;DHT22;20426;48.372;10.888;2023-08-24T02:02:11;22.50;99.90
34153;DHT22;20426;48.372;10.888;2023-08-24T02:02:43;22.50;99.90
34153;DHT22;20426;48.372;10.888;2023-08-24T02:03:14;22.50;99.90
34153;DHT22;20426;48.372;10.888;2023-08-24T02:03:45;22.50;99.90
34153;DHT22;20426;48.372;10.888;2023-08-24T02:04:16;22.50;99.90
34153;DHT22;20426;48.372;10.888;2023-08-24T02:04:46;22.50;99.90
34153;DHT22;20426;48.372;10.888;2023-08-24T02:05:17;22.50;99.90
34153;DHT22;20426;48.372;10.888;2023-08-24T02:05:48;22.50;99.90
34153;DHT22;20426;48.372;10.888;2023-08-24T02:06:18;22.50;99.90
34153;DHT22;20426;48.372;10.888;2023-08-24T02:06:49;22.50;99.90
34153;DHT22;20426;48.372;10.888;2023-08-24T02:07:20;22.40;99.90
34153;DHT22;20426;48.372;10.888;2023-08-24T02:07:50;22.40;99.90
34153;DHT22;20426;48.372;10.888;2023-08-24T02:08:21;22.40;99.90
34153;DHT22;20426;48.372;10.888;2023-08-24T02:08:51;22.40;99.90
34153;DHT22;20426;48.372;10.888;2023-08-24T02:09:22;22.40;99.90
34153;DHT22;20426;48.372;10.888;2023-08-24T02:09:53;22.40;99.90
34153;DHT22;20426;48.372;10.888;2023-08-24T02:10:23;22.40;99.90
34153;DHT22;20426;48.372;10.888;2023-08-24T02:10:54;22.40;99.90
34153;DHT22;20426;48.372;10.888;2023-08-24T02:11:25;22.40;99.90
34153;DHT22;20426;48.372;10.888;2023-08-24T02:11:56;22.40;99.90
34153;DHT22;20426;48.372;10.888;2023-08-24T02:12:26;22.40;99.90
34153;DHT22;20426;48.372;10.888;2023-08-24T02:12:57;22.40;99.90
34153;DHT22;20426;48.372;10.888;2023-08-24T02:13:28;22.40;99.90
34153;DHT22;20426;48.372;10.888;2023-08-24T02:13:58;22.40;99.90
34153;DHT22;20426;48.372;10.888;2023-08-24T02:14:29;22.40;99.90
34153;DHT22;20426;48.372;10.888;2023-08-24T02:15:00;22.40;99.90
34153;DHT22;20426;48.372;10.888;2023-08-24T02:15:30;22.40;99.90
34153;DHT22;20426;48.372;10.888;2023-08-24T02:16:05;22.40;99.90
34153;DHT22;20426;48.372;10.888;2023-08-24T02:16:36;22.40;99.90
34153;DHT22;20426;48.372;10.888;2023-08-24T02:17:07;22.40;99.90
34153;DHT22;20426;48.372;10.888;2023-08-24T02:17:38;22.40;99.90
34153;DHT22;20426;48.372;10.888;2023-08-24T02:18:08;22.40;99.90
34153;DHT22;20426;48.372;10.888;2023-08-24T02:18:39;22.40;99.90
34153;DHT22;20426;48.372;10.888;2023-08-24T02:19:10;22.40;99.90
34153;DHT22;20426;48.372;10.888;2023-08-24T02:19:40;22.40;99.90
34153;DHT22;20426;48.372;10.888;2023-08-24T02:20:12;22.30;99.90
34153;DHT22;20426;48.372;10.888;2023-08-24T02:20:42;22.40;99.90
34153;DHT22;20426;48.372;10.888;2023-08-24T02:21:13;22.40;99.90
34153;DHT22;20426;48.372;10.888;2023-08-24T02:21:45;22.30;99.90
34153;DHT22;20426;48.372;10.888;2023-08-24T02:22:16;22.40;99.90
34153;DHT22;20426;48.372;10.888;2023-08-24T02:22:47;22.40;99.90
34153;DHT22;20426;48.372;10.888;2023-08-24T02:23:17;22.40;99.90
34153;DHT22;20426;48.372;10.888;2023-08-24T02:23:48;22.30;99.90
34153;DHT22;20426;48.372;10.888;2023-08-24T02:24:19;22.40;99.90
34153;DHT22;20426;48.372;10.888;2023-08-24T02:24:49;22.30;99.90
34153;DHT22;20426;48.372;10.888;2023-08-24T02:25:20;22.40;99.90
34153;DHT22;20426;48.372;10.888;2023-08-24T02:25:51;22.30;99.90
34153;DHT22;20426;48.372;10.888;2023-08-24T02:26:21;22.30;99.90
34153;DHT22;20426;48.372;10.888;2023-08-24T02:26:52;22.30;99.90
34153;DHT22;20426;48.372;10.888;2023-08-24T02:27:23;22.30;99.90
34153;DHT22;20426;48.372;10.888;2023-08-24T02:27:54;22.30;99.90
34153;DHT22;20426;48.372;10.888;2023-08-24T02:28:25;22.30;99.90
34153;DHT22;20426;48.372;10.888;2023-08-24T02:28:57;22.30;99.90
34153;DHT22;20426;48.372;10.888;2023-08-24T02:29:28;22.30;99.90
34153;DHT22;20426;48.372;10.888;2023-08-24T02:29:58;22.30;99.90
34153;DHT22;20426;48.372;10.888;2023-08-24T02:30:29;22.30;99.90
34153;DHT22;20426;48.372;10.888;2023-08-24T02:31:03;22.30;99.90
34153;DHT22;20426;48.372;10.888;2023-08-24T02:31:34;22.30;99.90
34153;DHT22;20426;48.372;10.888;2023-08-24T02:32:05;22.30;99.90
34153;DHT22;20426;48.372;10.888;2023-08-24T02:32:36;22.30;99.90
34153;DHT22;20426;48.372;10.888;2023-08-24T02:33:06;22.30;99.90
34153;DHT22;20426;48.372;10.888;2023-08-24T02:33:38;22.30;99.90
34153;DHT22;20426;48.372;10.888;2023-08-24T02:34:08;22.30;99.90
34153;DHT22;20426;48.372;10.888;2023-08-24T02:34:39;22.30;99.90
34153;DHT22;20426;48.372;10.888;2023-08-24T02:35:10;22.30;99.90
34153;DHT22;20426;48.372;10.888;2023-08-24T02:35:41;22.30;99.90
34153;DHT22;20426;48.372;10.888;2023-08-24T02:36:11;22.30;99.90
34153;DHT22;20426;48.372;10.888;2023-08-24T02:36:42;22.30;99.90
34153;DHT22;20426;48.372;10.888;2023-08-24T02:37:13;22.30;99.90
34153;DHT22;20426;48.372;10.888;2023-08-24T02:37:43;22.30;99.90
34153;DHT22;20426;48.372;10.888;2023-08-24T02:38:14;22.30;99.90
34153;DHT22;20426;48.372;10.888;2023-08-24T02:38:45;22.30;99.90
34153;DHT22;20426;48.372;10.888;2023-08-24T02:39:16;22.30;99.90
34153;DHT22;20426;48.372;10.888;2023-08-24T02:39:47;22.30;99.90
34153;DHT22;20426;48.372;10.888;2023-08-24T02:40:18;22.30;99.90
34153;DHT22;20426;48.372;10.888;2023-08-24T02:40:49;22.30;99.90
34153;DHT22;20426;48.372;10.888;2023-08-24T02:41:19;22.30;99.90
34153;DHT22;20426;48.372;10.888;2023-08-24T02:41:50;22.30;99.90
34153;DHT22;20426;48.372;10.888;2023-08-24T02:42:21;22.30;99.90
34153;DHT22;20426;48.372;10.888;2023-08-24T02:42:51;22.30;99.90
34153;DHT22;20426;48.372;10.888;2023-08-24T02:43:22;22.30;99.90
34153;DHT22;20426;48.372;10.888;2023-08-24T02:43:53;22.30;99.90
34153;DHT22;20426;48.372;10.888;2023-08-24T02:44:23;22.30;99.90
34153;DHT22;20426;48.372;10.888;2023-08-24T02:44:54;22.30;99.90
34153;DHT22;20426;48.372;10.888;2023-08-24T02:45:25;22.30;99.90
34153;DHT22;20426;48.372;10.888;2023-08-24T02:46:03;22.30;99.90
34153;DHT22;20426;48.372;10.888;2023-08-24T02:46:34;22.30;99.90
34153;DHT22;20426;48.372;10.888;2023-08-24T02:47:05;22.30;99.90
34153;DHT22;20426;48.372;10.888;2023-08-24T02:47:35;22.30;99.90
34153;DHT22;20426;48.372;10.888;2023-08-24T02:48:07;22.30;99.90
34153;DHT22;20426;48.372;10.888;2023-08-24T02:48:38;22.30;99.90
34153;DHT22;20426;48.372;10.888;2023-08-24T02:49:08;22.30;99.90
34153;DHT22;20426;48.372;10.888;2023-08-24T02:49:39;22.20;99.90
34153;DHT22;20426;48.372;10.888;2023-08-24T02:50:10;22.20;99.90
34153;DHT22;20426;48.372;10.888;2023-08-24T02:50:40;22.20;99.90
34153;DHT22;20426;48.372;10.888;2023-08-24T02:51:15;22.30;99.90
34153;DHT22;20426;48.372;10.888;2023-08-24T02:51:46;22.20;99.90
34153;DHT22;20426;48.372;10.888;2023-08-24T02:52:17;22.20;99.90
34153;DHT22;20426;48.372;10.888;2023-08-24T02:52:48;22.20;99.90
34153;DHT22;20426;48.372;10.888;2023-08-24T02:53:18;22.20;99.90
34153;DHT22;20426;48.372;10.888;2023-08-24T02:53:50;22.20;99.90
34153;DHT22;20426;48.372;10.888;2023-08-24T02:54:20;22.20;99.90
34153;DHT22;20426;48.372;10.888;2023-08-24T02:54:51;22.20;99.90
34153;DHT22;20426;48.372;10.888;2023-08-24T02:55:22;22.20;99.90
34153;DHT22;20426;48.372;10.888;2023-08-24T02:55:53;22.20;99.90
34153;DHT22;20426;48.372;10.888;2023-08-24T02:56:24;22.20;99.90
34153;DHT22;20426;48.372;10.888;2023-08-24T02:56:55;22.20;99.90
34153;DHT22;20426;48.372;10.888;2023-08-24T02:57:25;22.20;99.90
34153;DHT22;20426;48.372;10.888;2023-08-24T02:57:56;22.20;99.90
34153;DHT22;20426;48.372;10.888;2023-08-24T02:58:27;22.20;99.90
34153;DHT22;20426;48.372;10.888;2023-08-24T02:58:58;22.20;99.90
34153;DHT22;20426;48.372;10.888;2023-08-24T02:59:28;22.20;99.90
34153;DHT22;20426;48.372;10.888;2023-08-24T02:59:59;22.20;99.90
34153;DHT22;20426;48.372;10.888;2023-08-24T03:00:30;22.20;99.90
34153;DHT22;20426;48.372;10.888;2023-08-24T03:01:05;22.20;99.90
34153;DHT22;20426;48.372;10.888;2023-08-24T03:01:37;22.20;99.90
34153;DHT22;20426;48.372;10.888;2023-08-24T03:02:08;22.20;99.90
34153;DHT22;20426;48.372;10.888;2023-08-24T03:02:39;22.20;99.90
34153;DHT22;20426;48.372;10.888;2023-08-24T03:03:10;22.20;99.90
34153;DHT22;20426;48.372;10.888;2023-08-24T03:03:40;22.20;99.90
34153;DHT22;20426;48.372;10.888;2023-08-24T03:04:11;22.20;99.90
34153;DHT22;20426;48.372;10.888;2023-08-24T03:04:42;22.10;99.90
34153;DHT22;20426;48.372;10.888;2023-08-24T03:05:12;22.10;99.90
34153;DHT22;20426;48.372;10.888;2023-08-24T03:06:24;22.20;99.90
34153;DHT22;20426;48.372;10.888;2023-08-24T03:06:55;22.10;99.90
34153;DHT22;20426;48.372;10.888;2023-08-24T03:07:25;22.10;99.90
34153;DHT22;20426;48.372;10.888;2023-08-24T03:07:56;22.10;99.90
34153;DHT22;20426;48.372;10.888;2023-08-24T03:08:28;22.10;99.90
34153;DHT22;20426;48.372;10.888;2023-08-24T03:09:00;22.10;99.90
34153;DHT22;20426;48.372;10.888;2023-08-24T03:09:31;22.10;99.90
34153;DHT22;20426;48.372;10.888;2023-08-24T03:10:02;22.10;99.90
34153;DHT22;20426;48.372;10.888;2023-08-24T03:10:37;22.10;99.90
34153;DHT22;20426;48.372;10.888;2023-08-24T03:11:07;22.10;99.90
34153;DHT22;20426;48.372;10.888;2023-08-24T03:11:38;22.10;99.90
34153;DHT22;20426;48.372;10.888;2023-08-24T03:12:09;22.10;99.90
34153;DHT22;20426;48.372;10.888;2023-08-24T03:12:40;22.10;99.90
34153;DHT22;20426;48.372;10.888;2023-08-24T03:13:10;22.10;99.90
34153;DHT22;20426;48.372;10.888;2023-08-24T03:13:41;22.10;99.90
34153;DHT22;20426;48.372;10.888;2023-08-24T03:14:11;22.10;99.90
34153;DHT22;20426;48.372;10.888;2023-08-24T03:14:42;22.10;99.90
34153;DHT22;20426;48.372;10.888;2023-08-24T03:15:13;22.10;99.90
34153;DHT22;20426;48.372;10.888;2023-08-24T03:15:43;22.10;99.90
34153;DHT22;20426;48.372;10.888;2023-08-24T03:16:14;22.10;99.90
34153;DHT22;20426;48.372;10.888;2023-08-24T03:16:45;22.10;99.90
34153;DHT22;20426;48.372;10.888;2023-08-24T03:17:16;22.10;99.90
34153;DHT22;20426;48.372;10.888;2023-08-24T03:17:46;22.10;99.90
34153;DHT22;20426;48.372;10.888;2023-08-24T03:18:18;22.10;99.90
34153;DHT22;20426;48.372;10.888;2023-08-24T03:18:49;22.10;99.90
34153;DHT22;20426;48.372;10.888;2023-08-24T03:19:20;22.10;99.90
34153;DHT22;20426;48.372;10.888;2023-08-24T03:19:50;22.10;99.90
34153;DHT22;20426;48.372;10.888;2023-08-24T03:20:21;22.10;99.90
34153;DHT22;20426;48.372;10.888;2023-08-24T03:20:52;22.10;99.90
34153;DHT22;20426;48.372;10.888;2023-08-24T03:21:23;22.10;99.90
34153;DHT22;20426;48.372;10.888;2023-08-24T03:21:54;22.10;99.90
34153;DHT22;20426;48.372;10.888;2023-08-24T03:22:25;22.10;99.90
34153;DHT22;20426;48.372;10.888;2023-08-24T03:22:55;22.10;99.90